Sakura — JG5711 — position and weather

sailwx.info

Track history (hours):
 
Tides and Currents Weather Stations Pressure Air Temp Water Temp Dewpoint Dewpoint Depression Visibility Wind Speed Wind Dir Waves Ship Positions

Sakura

Last reported at 2016-Dec-07 22:33 UTC. Time now 2016-Dec-08 02:13 UTC.
Position N 35°27' E 139°40'.

Length 32 m; draft 3.6 m.

Type: Tug. MMSI: 431101178.

Date/timePositionNaut miles runAvg speedWind from/ knotsBaromVisibWave heightAir tempDewpointWater temp
2016-Dec-07 22:33N 35°27' E 139°40'1 0.7
2016-Dec-07 21:34N 35°27' E 139°39'2 2.4
2016-Dec-07 20:33N 35°26' E 139°42'0 0.0
2016-Dec-07 19:33N 35°26' E 139°42'1 0.7
2016-Dec-07 18:33N 35°26' E 139°41'2 1.5
2016-Dec-07 17:33N 35°27' E 139°42'0 0.0
2016-Dec-07 16:33N 35°27' E 139°42'0 0.0
2016-Dec-07 15:34N 35°27' E 139°42'0 0.0
2016-Dec-07 14:33N 35°27' E 139°42'0 0.0
2016-Dec-07 13:33N 35°27' E 139°42'0 0.0
2016-Dec-07 12:33N 35°27' E 139°42'0 0.0
2016-Dec-07 11:33N 35°27' E 139°42'1 1.0
2016-Dec-07 10:33N 35°27' E 139°43'4 3.5
2016-Dec-07 09:33N 35°23' E 139°41'3 2.5
2016-Dec-07 08:33N 35°26' E 139°42'0 0.0
2016-Dec-07 07:34N 35°26' E 139°42'1 1.4
2016-Dec-07 06:33N 35°27' E 139°41'1 1.0
2016-Dec-07 05:33N 35°27' E 139°40'0 0.0
2016-Dec-07 04:33N 35°27' E 139°40'0 0.0
2016-Dec-07 03:33N 35°27' E 139°40'0 0.0
2016-Dec-07 02:33N 35°27' E 139°40'0 0.0
2016-Dec-07 01:33N 35°27' E 139°40'0 0.0
2016-Dec-07 00:33N 35°27' E 139°40'0 0.0
2016-Dec-06 23:33N 35°27' E 139°40'0 0.0
2016-Dec-06 22:33N 35°27' E 139°40'0 0.0
2016-Dec-06 07:11N 35°27' E 139°40'0 0.0
2016-Dec-06 06:33N 35°27' E 139°40'0 0.0
2016-Dec-06 05:33N 35°27' E 139°40'0 0.0
2016-Dec-06 04:33N 35°27' E 139°40'0 0.0
2016-Dec-06 03:33N 35°27' E 139°40'3 3.3
2016-Dec-06 02:33N 35°26' E 139°44'3 3.2
2016-Dec-06 01:33N 35°27' E 139°40'0 0.2
2016-Dec-06 00:33N 35°27' E 139°40'0 0.0
2016-Dec-05 23:33N 35°27' E 139°40'2 1.9
2016-Dec-05 22:33N 35°28' E 139°42'3 2.8
2016-Dec-05 21:33N 35°27' E 139°45'4 4.4
2016-Dec-05 20:33N 35°27' E 139°40'0 0.0
2016-Dec-05 07:12N 35°27' E 139°40'0 0.0
2016-Dec-05 06:33N 35°27' E 139°40'0 0.3
2016-Dec-05 05:33N 35°27' E 139°39'0 0.0
2016-Dec-05 04:33N 35°27' E 139°39'2 2.4
2016-Dec-05 03:33N 35°26' E 139°42'4 3.0
2016-Dec-05 02:23N 35°24' E 139°38'1 1.8
2016-Dec-05 01:33N 35°24' E 139°40'0 0.0
2016-Dec-05 00:33N 35°24' E 139°40'0 0.0
2016-Dec-04 23:33N 35°24' E 139°40'3 3.4
2016-Dec-04 22:34N 35°27' E 139°40'1 0.7
2016-Dec-04 21:33N 35°28' E 139°40'2 1.9
2016-Dec-04 20:33N 35°27' E 139°42'3 2.9
2016-Dec-04 19:33N 35°27' E 139°39'0 0.0
2016-Dec-04 10:34N 35°27' E 139°39'2 1.6
2016-Dec-04 09:34N 35°27' E 139°41'4 4.4
2016-Dec-04 08:33N 35°29' E 139°45'5 4.8
2016-Dec-04 07:34N 35°27' E 139°40'1 1.2
2016-Dec-04 06:33N 35°27' E 139°39'0 0.0
2016-Dec-04 05:34N 35°27' E 139°39'0 0.0
2016-Dec-04 04:33N 35°27' E 139°39'0 0.0
2016-Dec-04 03:33N 35°27' E 139°39'2 2.0
2016-Dec-04 02:33N 35°27' E 139°41'2 2.0
2016-Dec-04 01:33N 35°27' E 139°39'0 0.0
2016-Dec-04 00:33N 35°27' E 139°39'0 0.0
2016-Dec-03 23:33N 35°27' E 139°39'1 1.2
2016-Dec-03 22:33N 35°28' E 139°40'6 5.8
2016-Dec-03 21:33N 35°31' E 139°46'7 7.0
2016-Dec-03 20:33N 35°27' E 139°39'0 0.0
2016-Dec-03 06:34N 35°27' E 139°39'0 0.0
2016-Dec-03 05:34N 35°27' E 139°39'0 0.0
2016-Dec-03 04:33N 35°27' E 139°39'2 2.4
2016-Dec-03 03:34N 35°27' E 139°41'4 3.9
2016-Dec-03 02:34N 35°24' E 139°38'1 1.4
2016-Dec-03 01:34N 35°23' E 139°40'0 0.0
2016-Dec-03 00:33N 35°23' E 139°40'6 5.6
2016-Dec-02 23:34N 35°28' E 139°44'3 2.7
2016-Dec-02 22:34N 35°30' E 139°45'1 0.8
2016-Dec-02 21:34N 35°31' E 139°46'7 7.1
2016-Dec-02 20:34N 35°27' E 139°39'0 0.0
2016-Dec-02 06:33N 35°27' E 139°39'0 0.0
2016-Dec-02 05:33N 35°27' E 139°39'0 0.0
2016-Dec-02 04:33N 35°27' E 139°39'5 1.6
2016-Dec-02 01:33N 35°23' E 139°41'0 0.2
2016-Dec-02 00:33N 35°23' E 139°41'3 2.8
2016-Dec-01 23:33N 35°24' E 139°38'3 3.2
2016-Dec-01 22:34N 35°23' E 139°41'3 2.6
2016-Dec-01 21:33N 35°26' E 139°42'3 3.0
2016-Dec-01 20:33N 35°27' E 139°39'0 0.0
2016-Dec-01 07:19N 35°27' E 139°39'3 3.6
2016-Dec-01 06:33N 35°27' E 139°42'5 4.8
2016-Dec-01 05:33N 35°29' E 139°47'1 1.4
2016-Dec-01 04:33N 35°28' E 139°46'5 5.1
2016-Dec-01 03:34N 35°27' E 139°39'0 0.0
2016-Dec-01 02:33N 35°27' E 139°39'0 0.0
2016-Dec-01 01:34N 35°27' E 139°39'0 0.0
2016-Dec-01 00:33N 35°27' E 139°39'0 0.0
2016-Nov-30 23:34N 35°27' E 139°39'0 0.0
2016-Nov-30 22:33N 35°27' E 139°39'1 1.5
2016-Nov-30 21:33N 35°29' E 139°39'2 1.6
2016-Nov-30 20:33N 35°27' E 139°40'0 0.0
2016-Nov-30 08:20N 35°27' E 139°40'7 8.6
2016-Nov-30 07:34N 35°31' E 139°46'5 4.5
2016-Nov-30 06:33N 35°27' E 139°43'3 2.6
2016-Nov-30 05:33N 35°27' E 139°40'0 0.2
2016-Nov-30 04:33N 35°27' E 139°40'0 0.0
2016-Nov-30 03:34N 35°27' E 139°40'0 0.0
2016-Nov-30 02:34N 35°27' E 139°40'2 1.9
2016-Nov-30 01:34N 35°27' E 139°42'5 5.2
2016-Nov-30 00:33N 35°31' E 139°46'1 0.8
2016-Nov-29 23:33N 35°30' E 139°46'1 0.6
2016-Nov-29 22:33N 35°30' E 139°46'3 2.5
2016-Nov-29 21:33N 35°27' E 139°47'6 6.0
2016-Nov-29 20:34N 35°27' E 139°40'0 0.0
2016-Nov-29 08:31N 35°27' E 139°40'2 1.9
2016-Nov-29 07:33N 35°25' E 139°41'1 1.5
2016-Nov-29 06:33N 35°27' E 139°41'1 1.3
2016-Nov-29 05:33N 35°27' E 139°40'0 0.0
2016-Nov-29 04:33N 35°27' E 139°40'4 3.7
2016-Nov-29 03:33N 35°23' E 139°41'2 2.2
2016-Nov-29 02:33N 35°24' E 139°38'2 2.3
2016-Nov-29 01:33N 35°23' E 139°41'4 4.0
2016-Nov-29 00:33N 35°27' E 139°40'1 0.7
2016-Nov-28 23:33N 35°27' E 139°40'0 0.0
2016-Nov-28 22:33N 35°27' E 139°40'0 0.0
2016-Nov-27 23:14N 35°27' E 139°40'  
Track history (hours):
 
Tides and Currents Weather Stations Pressure Air Temp Water Temp Dewpoint Dewpoint Depression Visibility Wind Speed Wind Dir Waves Ship Positions

Sakura

Last reported at 2016-Dec-07 22:33 UTC. Time now 2016-Dec-08 02:13 UTC.
Position N 35°27' E 139°40'.

Length 32 m; draft 3.6 m.

Type: Tug. MMSI: 431101178.

Date/timePositionNaut miles runAvg speedWind from/ knotsBaromVisibWave heightAir tempDewpointWater temp
2016-Dec-07 22:33N 35°27' E 139°40'1 0.7
2016-Dec-07 21:34N 35°27' E 139°39'2 2.4
2016-Dec-07 20:33N 35°26' E 139°42'0 0.0
2016-Dec-07 19:33N 35°26' E 139°42'1 0.7
2016-Dec-07 18:33N 35°26' E 139°41'2 1.5
2016-Dec-07 17:33N 35°27' E 139°42'0 0.0
2016-Dec-07 16:33N 35°27' E 139°42'0 0.0
2016-Dec-07 15:34N 35°27' E 139°42'0 0.0
2016-Dec-07 14:33N 35°27' E 139°42'0 0.0
2016-Dec-07 13:33N 35°27' E 139°42'0 0.0
2016-Dec-07 12:33N 35°27' E 139°42'0 0.0
2016-Dec-07 11:33N 35°27' E 139°42'1 1.0
2016-Dec-07 10:33N 35°27' E 139°43'4 3.5
2016-Dec-07 09:33N 35°23' E 139°41'3 2.5
2016-Dec-07 08:33N 35°26' E 139°42'0 0.0
2016-Dec-07 07:34N 35°26' E 139°42'1 1.4
2016-Dec-07 06:33N 35°27' E 139°41'1 1.0
2016-Dec-07 05:33N 35°27' E 139°40'0 0.0
2016-Dec-07 04:33N 35°27' E 139°40'0 0.0
2016-Dec-07 03:33N 35°27' E 139°40'0 0.0
2016-Dec-07 02:33N 35°27' E 139°40'0 0.0
2016-Dec-07 01:33N 35°27' E 139°40'0 0.0
2016-Dec-07 00:33N 35°27' E 139°40'0 0.0
2016-Dec-06 23:33N 35°27' E 139°40'0 0.0
2016-Dec-06 22:33N 35°27' E 139°40'0 0.0
2016-Dec-06 07:11N 35°27' E 139°40'0 0.0
2016-Dec-06 06:33N 35°27' E 139°40'0 0.0
2016-Dec-06 05:33N 35°27' E 139°40'0 0.0
2016-Dec-06 04:33N 35°27' E 139°40'0 0.0
2016-Dec-06 03:33N 35°27' E 139°40'3 3.3
2016-Dec-06 02:33N 35°26' E 139°44'3 3.2
2016-Dec-06 01:33N 35°27' E 139°40'0 0.2
2016-Dec-06 00:33N 35°27' E 139°40'0 0.0
2016-Dec-05 23:33N 35°27' E 139°40'2 1.9
2016-Dec-05 22:33N 35°28' E 139°42'3 2.8
2016-Dec-05 21:33N 35°27' E 139°45'4 4.4
2016-Dec-05 20:33N 35°27' E 139°40'0 0.0
2016-Dec-05 07:12N 35°27' E 139°40'0 0.0
2016-Dec-05 06:33N 35°27' E 139°40'0 0.3
2016-Dec-05 05:33N 35°27' E 139°39'0 0.0
2016-Dec-05 04:33N 35°27' E 139°39'2 2.4
2016-Dec-05 03:33N 35°26' E 139°42'4 3.0
2016-Dec-05 02:23N 35°24' E 139°38'1 1.8
2016-Dec-05 01:33N 35°24' E 139°40'0 0.0
2016-Dec-05 00:33N 35°24' E 139°40'0 0.0
2016-Dec-04 23:33N 35°24' E 139°40'3 3.4
2016-Dec-04 22:34N 35°27' E 139°40'1 0.7
2016-Dec-04 21:33N 35°28' E 139°40'2 1.9
2016-Dec-04 20:33N 35°27' E 139°42'3 2.9
2016-Dec-04 19:33N 35°27' E 139°39'0 0.0
2016-Dec-04 10:34N 35°27' E 139°39'2 1.6
2016-Dec-04 09:34N 35°27' E 139°41'4 4.4
2016-Dec-04 08:33N 35°29' E 139°45'5 4.8
2016-Dec-04 07:34N 35°27' E 139°40'1 1.2
2016-Dec-04 06:33N 35°27' E 139°39'0 0.0
2016-Dec-04 05:34N 35°27' E 139°39'0 0.0
2016-Dec-04 04:33N 35°27' E 139°39'0 0.0
2016-Dec-04 03:33N 35°27' E 139°39'2 2.0
2016-Dec-04 02:33N 35°27' E 139°41'2 2.0
2016-Dec-04 01:33N 35°27' E 139°39'0 0.0
2016-Dec-04 00:33N 35°27' E 139°39'0 0.0
2016-Dec-03 23:33N 35°27' E 139°39'1 1.2
2016-Dec-03 22:33N 35°28' E 139°40'6 5.8
2016-Dec-03 21:33N 35°31' E 139°46'7 7.0
2016-Dec-03 20:33N 35°27' E 139°39'0 0.0
2016-Dec-03 06:34N 35°27' E 139°39'0 0.0
2016-Dec-03 05:34N 35°27' E 139°39'0 0.0
2016-Dec-03 04:33N 35°27' E 139°39'2 2.4
2016-Dec-03 03:34N 35°27' E 139°41'4 3.9
2016-Dec-03 02:34N 35°24' E 139°38'1 1.4
2016-Dec-03 01:34N 35°23' E 139°40'0 0.0
2016-Dec-03 00:33N 35°23' E 139°40'6 5.6
2016-Dec-02 23:34N 35°28' E 139°44'3 2.7
2016-Dec-02 22:34N 35°30' E 139°45'1 0.8
2016-Dec-02 21:34N 35°31' E 139°46'7 7.1
2016-Dec-02 20:34N 35°27' E 139°39'0 0.0
2016-Dec-02 06:33N 35°27' E 139°39'0 0.0
2016-Dec-02 05:33N 35°27' E 139°39'0 0.0
2016-Dec-02 04:33N 35°27' E 139°39'5 1.6
2016-Dec-02 01:33N 35°23' E 139°41'0 0.2
2016-Dec-02 00:33N 35°23' E 139°41'3 2.8
2016-Dec-01 23:33N 35°24' E 139°38'3 3.2
2016-Dec-01 22:34N 35°23' E 139°41'3 2.6
2016-Dec-01 21:33N 35°26' E 139°42'3 3.0
2016-Dec-01 20:33N 35°27' E 139°39'0 0.0
2016-Dec-01 07:19N 35°27' E 139°39'3 3.6
2016-Dec-01 06:33N 35°27' E 139°42'5 4.8
2016-Dec-01 05:33N 35°29' E 139°47'1 1.4
2016-Dec-01 04:33N 35°28' E 139°46'5 5.1
2016-Dec-01 03:34N 35°27' E 139°39'0 0.0
2016-Dec-01 02:33N 35°27' E 139°39'0 0.0
2016-Dec-01 01:34N 35°27' E 139°39'0 0.0
2016-Dec-01 00:33N 35°27' E 139°39'0 0.0
2016-Nov-30 23:34N 35°27' E 139°39'0 0.0
2016-Nov-30 22:33N 35°27' E 139°39'1 1.5
2016-Nov-30 21:33N 35°29' E 139°39'2 1.6
2016-Nov-30 20:33N 35°27' E 139°40'0 0.0
2016-Nov-30 08:20N 35°27' E 139°40'7 8.6
2016-Nov-30 07:34N 35°31' E 139°46'5 4.5
2016-Nov-30 06:33N 35°27' E 139°43'3 2.6
2016-Nov-30 05:33N 35°27' E 139°40'0 0.2
2016-Nov-30 04:33N 35°27' E 139°40'0 0.0
2016-Nov-30 03:34N 35°27' E 139°40'0 0.0
2016-Nov-30 02:34N 35°27' E 139°40'2 1.9
2016-Nov-30 01:34N 35°27' E 139°42'5 5.2
2016-Nov-30 00:33N 35°31' E 139°46'1 0.8
2016-Nov-29 23:33N 35°30' E 139°46'1 0.6
2016-Nov-29 22:33N 35°30' E 139°46'3 2.5
2016-Nov-29 21:33N 35°27' E 139°47'6 6.0
2016-Nov-29 20:34N 35°27' E 139°40'0 0.0
2016-Nov-29 08:31N 35°27' E 139°40'2 1.9
2016-Nov-29 07:33N 35°25' E 139°41'1 1.5
2016-Nov-29 06:33N 35°27' E 139°41'1 1.3
2016-Nov-29 05:33N 35°27' E 139°40'0 0.0
2016-Nov-29 04:33N 35°27' E 139°40'4 3.7
2016-Nov-29 03:33N 35°23' E 139°41'2 2.2
2016-Nov-29 02:33N 35°24' E 139°38'2 2.3
2016-Nov-29 01:33N 35°23' E 139°41'4 4.0
2016-Nov-29 00:33N 35°27' E 139°40'1 0.7
2016-Nov-28 23:33N 35°27' E 139°40'0 0.0
2016-Nov-28 22:33N 35°27' E 139°40'0 0.0
2016-Nov-27 23:14N 35°27' E 139°40'  

Dump ship's entire track history